createdAt,value
2019-03-17T00:00:58.991Z,86.30
2019-03-17T00:03:39.455Z,84.00
2019-03-17T00:06:16.298Z,84.30
2019-03-17T00:08:46.958Z,83.80
2019-03-17T00:11:15.861Z,85.20
2019-03-17T00:13:46.142Z,85.80
2019-03-17T00:16:18.556Z,85.30
2019-03-17T00:19:02.183Z,85.80
2019-03-17T00:21:33.842Z,85.90
2019-03-17T00:24:03.931Z,85.50
2019-03-17T00:26:34.578Z,83.40
2019-03-17T00:29:16.081Z,84.00
2019-03-17T00:31:47.753Z,82.70
2019-03-17T00:34:20.981Z,84.50
2019-03-17T00:36:52.154Z,85.60
2019-03-17T00:39:21.116Z,85.90
2019-03-17T00:41:50.054Z,84.70
2019-03-17T00:44:19.082Z,84.40
2019-03-17T00:46:50.414Z,82.80
2019-03-17T00:52:55.265Z,83.10
2019-03-17T00:55:25.610Z,83.50
2019-03-17T00:57:56.218Z,82.20
2019-03-17T01:00:25.396Z,81.50
2019-03-17T01:02:55.448Z,82.00
2019-03-17T01:08:14.685Z,87.20
2019-03-17T01:16:27.704Z,84.00
2019-03-17T01:18:57.519Z,83.80
2019-03-17T01:21:26.336Z,82.90
2019-03-17T01:23:57.011Z,83.80
2019-03-17T01:26:30.998Z,81.80
2019-03-17T01:29:02.251Z,83.90
2019-03-17T01:31:31.777Z,84.70
2019-03-17T01:34:00.997Z,85.30
2019-03-17T01:36:29.970Z,85.40
2019-03-17T01:39:00.523Z,86.20
2019-03-17T01:41:43.248Z,84.30
2019-03-17T01:47:03.650Z,85.80
2019-03-17T01:49:33.494Z,85.30
2019-03-17T01:52:02.733Z,84.10
2019-03-17T01:54:36.147Z,83.80
2019-03-17T01:57:06.861Z,83.60
2019-03-17T01:59:42.240Z,85.00
2019-03-17T02:02:20.750Z,84.80
2019-03-17T02:04:54.278Z,85.60
2019-03-17T02:07:24.316Z,86.20
2019-03-17T02:09:54.527Z,84.90
2019-03-17T02:12:24.282Z,84.20
2019-03-17T02:14:59.047Z,85.20
2019-03-17T02:17:36.896Z,85.20
2019-03-17T02:20:08.596Z,85.60
2019-03-17T02:22:37.826Z,85.10
2019-03-17T02:25:09.635Z,85.80
2019-03-17T02:27:39.118Z,85.40
2019-03-17T02:30:29.086Z,84.80
2019-03-17T02:32:59.554Z,83.30
2019-03-17T02:35:39.224Z,82.10
2019-03-17T02:38:05.841Z,80.70
2019-03-17T02:40:34.807Z,80.70
2019-03-17T02:43:04.192Z,83.70
2019-03-17T02:45:34.066Z,81.80
2019-03-17T02:48:04.314Z,81.00
2019-03-17T02:50:37.487Z,81.90
2019-03-17T02:53:07.632Z,81.50
2019-03-17T02:55:36.628Z,81.40
2019-03-17T02:58:06.670Z,81.40
2019-03-17T03:00:41.530Z,81.10
2019-03-17T03:03:10.825Z,82.90
2019-03-17T03:05:53.866Z,83.20
2019-03-17T03:08:10.502Z,82.30
2019-03-17T03:10:40.753Z,80.80
2019-03-17T03:13:09.710Z,83.50
2019-03-17T03:15:38.803Z,84.50
2019-03-17T03:18:07.818Z,84.40
2019-03-17T03:20:37.428Z,84.80
2019-03-17T03:23:07.913Z,85.40
2019-03-17T03:25:38.072Z,85.20
2019-03-17T03:28:07.772Z,84.90
2019-03-17T03:30:37.213Z,85.10
2019-03-17T03:33:06.172Z,84.00
2019-03-17T03:35:35.108Z,84.20
2019-03-17T03:38:06.457Z,83.40
2019-03-17T03:40:35.731Z,82.20
2019-03-17T03:43:04.625Z,81.50
2019-03-17T03:45:34.506Z,81.70
2019-03-17T03:48:03.281Z,81.00
2019-03-17T03:50:32.183Z,83.30
2019-03-17T03:53:01.032Z,83.50
2019-03-17T03:55:31.629Z,82.80
2019-03-17T03:58:01.542Z,81.40
2019-03-17T04:00:32.082Z,81.40
2019-03-17T04:03:01.316Z,81.90
2019-03-17T04:05:33.032Z,82.00
2019-03-17T04:08:04.153Z,81.50
2019-03-17T04:10:33.410Z,80.60
2019-03-17T04:13:04.092Z,81.30
2019-03-17T04:15:32.936Z,82.90
2019-03-17T04:18:04.362Z,82.50
2019-03-17T04:20:33.234Z,80.80
2019-03-17T04:23:43.568Z,82.60
2019-03-17T04:26:14.952Z,80.70
2019-03-17T04:28:43.763Z,82.90
2019-03-17T04:31:14.513Z,82.00
2019-03-17T04:33:43.148Z,81.50
2019-03-17T04:36:12.330Z,82.40
2019-03-17T04:38:43.845Z,80.40
2019-03-17T04:41:13.336Z,82.20
2019-03-17T04:43:43.253Z,81.40
2019-03-17T04:46:12.763Z,81.50
2019-03-17T04:48:42.010Z,81.20
2019-03-17T04:51:10.866Z,82.20
2019-03-17T04:54:02.585Z,81.30
2019-03-17T04:57:09.458Z,81.70
2019-03-17T04:59:38.357Z,81.80
2019-03-17T05:02:07.143Z,82.70
2019-03-17T05:04:36.036Z,79.90
2019-03-17T05:07:04.998Z,80.60
2019-03-17T05:09:36.175Z,79.80
2019-03-17T05:12:10.053Z,80.20
2019-03-17T05:14:39.033Z,81.70
2019-03-17T05:17:09.344Z,82.30
2019-03-17T05:19:39.650Z,82.80
2019-03-17T05:22:16.389Z,83.70
2019-03-17T05:24:46.230Z,81.80
2019-03-17T05:27:17.889Z,79.70
2019-03-17T05:29:51.816Z,80.50
2019-03-17T05:32:22.022Z,82.40
2019-03-17T05:34:52.869Z,81.60
2019-03-17T05:40:54.429Z,80.30
2019-03-17T05:43:26.577Z,79.30
2019-03-17T05:49:31.458Z,79.60
2019-03-17T05:52:36.085Z,79.20
2019-03-17T05:55:42.124Z,80.60
2019-03-17T05:58:13.435Z,80.60
2019-03-17T06:04:13.950Z,78.00
2019-03-17T06:06:44.686Z,79.90
2019-03-17T06:09:17.785Z,80.10
2019-03-17T06:11:49.219Z,80.30
2019-03-17T06:14:37.356Z,78.30
2019-03-17T06:17:07.804Z,78.00
2019-03-17T06:19:36.697Z,77.90
2019-03-17T06:22:07.567Z,79.10
2019-03-17T06:24:37.705Z,80.60
2019-03-17T06:27:06.586Z,81.40
2019-03-17T06:29:38.799Z,81.10
2019-03-17T06:32:16.555Z,79.90
2019-03-17T06:34:47.181Z,78.40
2019-03-17T06:37:31.007Z,80.20
2019-03-17T06:40:05.666Z,79.20
2019-03-17T06:42:35.318Z,78.30
2019-03-17T06:45:06.744Z,78.60
2019-03-17T06:47:38.037Z,78.00
2019-03-17T06:50:10.762Z,78.20
2019-03-17T06:52:39.642Z,80.60
2019-03-17T06:55:17.684Z,80.30
2019-03-17T06:57:48.653Z,81.20
2019-03-17T07:00:20.434Z,80.80
2019-03-17T07:02:49.451Z,81.30
2019-03-17T07:05:24.134Z,82.30
2019-03-17T07:07:56.314Z,82.80
2019-03-17T07:13:51.850Z,79.80
2019-03-17T07:16:32.841Z,81.10
2019-03-17T07:24:34.863Z,81.60
2019-03-17T07:27:12.705Z,80.10
2019-03-17T07:29:43.681Z,81.40
2019-03-17T07:32:29.867Z,80.40
2019-03-17T07:35:02.894Z,80.20
2019-03-17T07:37:35.201Z,79.50
2019-03-17T07:40:11.070Z,78.90
2019-03-17T07:42:39.977Z,80.00
2019-03-17T07:45:13.840Z,79.90
2019-03-17T07:47:44.893Z,78.30
2019-03-17T07:50:15.188Z,79.00
2019-03-17T07:52:54.349Z,77.80
2019-03-17T07:55:25.308Z,78.40
2019-03-17T07:57:55.297Z,78.50
2019-03-17T08:00:33.535Z,78.20
2019-03-17T08:03:02.711Z,79.10
2019-03-17T08:05:31.967Z,77.50
2019-03-17T08:08:09.535Z,76.20
2019-03-17T08:10:37.653Z,76.90
2019-03-17T08:13:08.921Z,77.10
2019-03-17T08:15:40.815Z,77.00
2019-03-17T08:18:10.262Z,76.60
2019-03-17T08:20:40.799Z,75.70
2019-03-17T08:23:14.738Z,75.10
2019-03-17T08:25:51.474Z,74.00
2019-03-17T08:28:22.015Z,73.70
2019-03-17T08:31:02.563Z,74.30
2019-03-17T08:33:43.433Z,74.70
2019-03-17T08:36:21.648Z,72.00
2019-03-17T08:38:53.213Z,71.50
2019-03-17T08:50:39.167Z,70.80
2019-03-17T08:56:01.774Z,71.20
2019-03-17T12:48:48.090Z,47.90
2019-03-17T13:10:52.825Z,46.80
2019-03-17T13:26:03.108Z,65.00
2019-03-17T13:35:32.054Z,73.40
2019-03-17T14:01:18.064Z,62.10
2019-03-17T14:03:47.006Z,65.70
2019-03-17T14:06:17.276Z,64.60
2019-03-17T14:11:35.730Z,73.10
2019-03-17T14:14:11.082Z,75.80
2019-03-17T14:16:44.857Z,78.60
2019-03-17T14:19:15.617Z,81.40
2019-03-17T14:25:24.818Z,82.00
2019-03-17T14:27:56.430Z,81.60
2019-03-17T14:31:08.554Z,81.50
2019-03-17T14:33:39.863Z,80.50
2019-03-17T14:36:13.325Z,79.80
2019-03-17T14:38:44.364Z,78.70
2019-03-17T14:45:04.527Z,69.30
2019-03-17T14:47:39.691Z,66.20
2019-03-17T14:50:28.871Z,58.30
2019-03-17T14:57:03.238Z,56.60
2019-03-17T14:59:40.746Z,54.30
2019-03-17T15:16:12.763Z,54.90
2019-03-17T15:19:14.173Z,56.30
2019-03-17T15:21:49.601Z,56.60
2019-03-17T17:50:08.403Z,56.00
2019-03-17T17:56:22.144Z,57.20
2019-03-17T17:59:12.230Z,56.00
2019-03-17T18:08:33.275Z,57.00
2019-03-17T18:11:04.865Z,59.50
2019-03-17T18:14:10.266Z,60.60
2019-03-17T18:20:14.660Z,62.20
2019-03-17T18:22:46.570Z,62.40
2019-03-17T18:26:10.089Z,63.90
2019-03-17T18:28:58.136Z,64.20
2019-03-17T18:34:16.317Z,67.10
2019-03-17T18:36:48.747Z,68.70
2019-03-17T18:39:19.840Z,68.20
2019-03-17T18:41:49.914Z,69.50
2019-03-17T18:44:39.747Z,69.90
2019-03-17T18:47:14.022Z,69.50
2019-03-17T18:49:59.151Z,70.70
2019-03-17T18:52:28.338Z,69.70
2019-03-17T18:54:59.954Z,71.30
2019-03-17T18:57:30.242Z,72.00
2019-03-17T19:00:05.731Z,72.10
2019-03-17T19:02:48.175Z,73.50
2019-03-17T19:05:28.172Z,73.30
2019-03-17T19:52:11.126Z,74.10
2019-03-17T19:54:53.381Z,74.00
2019-03-17T19:57:25.763Z,74.00
2019-03-17T19:59:58.939Z,74.30
2019-03-17T20:02:47.425Z,74.30
2019-03-17T20:24:43.499Z,76.80
2019-03-17T20:27:33.361Z,75.10
2019-03-17T20:44:02.283Z,77.90
2019-03-17T20:46:51.015Z,77.10
2019-03-17T20:49:23.447Z,76.30
2019-03-17T20:51:56.050Z,76.90
2019-03-17T20:54:35.764Z,76.60
2019-03-17T20:57:05.581Z,76.30
2019-03-17T20:59:40.339Z,75.60
2019-03-17T21:02:16.340Z,75.80
2019-03-17T21:07:43.521Z,76.00
2019-03-17T21:10:20.805Z,76.50
2019-03-17T21:12:51.615Z,76.10
2019-03-17T21:15:22.458Z,76.50
2019-03-17T21:17:52.866Z,72.60
2019-03-17T21:20:24.806Z,72.00
2019-03-17T21:22:55.818Z,71.20
2019-03-17T21:31:58.439Z,73.70
2019-03-17T21:34:29.627Z,72.90
2019-03-17T21:37:06.255Z,73.50
2019-03-17T21:39:37.044Z,74.60
2019-03-17T21:42:08.045Z,75.80
2019-03-17T21:44:38.839Z,76.10
2019-03-17T21:47:09.095Z,75.00
2019-03-17T21:49:38.824Z,74.90
2019-03-17T21:52:10.523Z,74.70
2019-03-17T21:55:21.691Z,75.00
2019-03-17T22:01:31.920Z,75.20
2019-03-17T22:04:06.844Z,76.40
2019-03-17T22:06:36.377Z,77.20
2019-03-17T22:09:08.272Z,77.40
2019-03-17T22:11:39.666Z,77.20
2019-03-17T22:14:12.251Z,78.00
2019-03-17T22:16:39.871Z,77.00
2019-03-17T22:19:12.854Z,77.30
2019-03-17T22:21:44.381Z,78.90
2019-03-17T22:24:19.227Z,79.50
2019-03-17T22:27:06.434Z,80.30
2019-03-17T22:29:36.462Z,79.50
2019-03-17T22:32:47.178Z,79.30
2019-03-17T22:35:21.058Z,78.10
2019-03-17T22:37:50.477Z,77.80
2019-03-17T22:40:20.016Z,77.90
2019-03-17T22:42:49.434Z,77.80
2019-03-17T22:45:18.416Z,77.70
2019-03-17T22:47:47.593Z,76.10
2019-03-17T22:50:19.447Z,77.00
2019-03-17T22:52:50.068Z,77.20
2019-03-17T22:55:19.753Z,76.70
2019-03-17T22:57:48.643Z,77.20
2019-03-17T23:00:26.451Z,78.60
2019-03-17T23:02:55.551Z,79.50
2019-03-17T23:05:29.452Z,79.20
2019-03-17T23:08:01.922Z,80.30
2019-03-17T23:10:33.481Z,80.50
2019-03-17T23:13:04.316Z,81.00
2019-03-17T23:15:36.110Z,80.00
2019-03-17T23:18:06.633Z,81.00
2019-03-17T23:20:39.429Z,81.40
2019-03-17T23:23:13.620Z,81.10
2019-03-17T23:25:42.585Z,80.80
2019-03-17T23:28:13.017Z,80.70
2019-03-17T23:30:43.840Z,80.00
2019-03-17T23:33:12.724Z,80.10
2019-03-17T23:35:42.693Z,80.50
2019-03-17T23:38:12.470Z,83.60
2019-03-17T23:40:42.885Z,81.90
2019-03-17T23:43:11.822Z,81.40
2019-03-17T23:45:41.590Z,81.70
2019-03-17T23:48:10.531Z,80.00
2019-03-17T23:50:42.147Z,79.70
2019-03-17T23:53:11.752Z,79.30
2019-03-17T23:55:42.780Z,80.80
2019-03-17T23:58:13.872Z,80.90
